« Back
NWS Peachtree City, Ga » Text Product » ATL Terminal Aerodrome Forecast


Printer-friendly Version
Current Version              Previous Versions:   1  2  3  4  5  6  7  8  9  

Terminal Aerodrome Forecast

789
FTUS42 KFFC 251900 AAA
TAFATL
TAF AMD
KATL 251954Z 2520/2624 27007KT P6SM SCT040 SCT250
     FM260300 24003KT P6SM FEW250
     FM261500 26007KT P6SM FEW050=

USA.gov is the U.S. government's official web portal to all federal, state and local government web resources and services.